EKBI/BLL METAR and TAF weather

Enter ICAO airport designator
Station Type Date Time Source
EKBI METAR 2021/07/29 03:20 UTC NOAA

EKBI 290320Z AUTO 18008KT 9999 -SHRA SCT019/// OVC084/// 14/13 Q1002


Station Type Date Time Source
EKBI Decoded METAR 2021/07/29 03:20 UTC NOAA

Billund Lufthavn, Denmark (EKBI) 55-44N 009-10E 79M
Jul 28, 2021 - 11:20 PM EDT / 2021.07.29 0320 UTC
Wind: from the S (180 degrees) at 9 MPH (8 KT):0
Visibility: greater than 7 mile(s):0
Sky conditions: overcast
Weather: light rain showers
Temperature: 57 F (14 C)
Dew Point: 55 F (13 C)
Relative Humidity: 93%
Pressure (altimeter): 29.59 in. Hg (1002 hPa)
ob: EKBI 290320Z AUTO 18008KT 9999 -SHRA SCT019/// OVC084/// 14/13 Q1002
cycle: 3

Station Type Date Time Source
EKBI TAF 2021/07/28 18:30 UTC NOAA

TAF EKBI 281711Z 2818/2918 21010KT 9999 SCT030
TEMPO 2818/2906 SHRA BKN008 SCT020CB
TEMPO 2906/2909 SHRA BKN010 BKN020CB
TEMPO 2909/2918 24015G28KT SHRA BKN010 BKN020CB PROB40
TEMPO 2909/2916 4000 TSRA

Example: see airport list